Time;durP1;ratioP1;P1;durP2;ratioP2;P2;SDS_P1;SDS_P2;PMS_P1;PMS_P2;Temp;Humidity;BMP_temperature;BMP_pressure;BME280_temperature;BME280_humidity;BME280_pressure;Samples;Min_cycle;Max_cycle;Signal;HPM_P1;HPM_P2
2023/06/18 00:00:38;;;;;;;;;;;;;;;;;;5038919;28;20406;-64
2023/06/18 00:03:04;;;;;;;;;;;;;;;;;;5034508;28;19942;-64
2023/06/18 00:05:30;;;;;;;;;;;;;;;;;;5025035;28;19937;-69
2023/06/18 00:07:56;;;;;;;;;;;;;;;;;;5035020;28;20019;-68
2023/06/18 00:10:23;;;;;;;;;;;;;;;;;;5015846;28;20012;-67
2023/06/18 00:12:49;;;;;;;;;;;;;;;;;;5015483;28;19958;-67
2023/06/18 00:15:15;;;;;;;;;;;;;;;;;;5014868;28;19974;-67
2023/06/18 00:17:41;;;;;;;;;;;;;;;;;;5015274;28;19962;-67
2023/06/18 00:20:07;;;;;;;;;;;;;;;;;;5015257;28;19946;-69
2023/06/18 00:22:38;;;;;;;;;;;;;;;;;;5015324;28;19939;-68
2023/06/18 00:25:04;;;;;;;;;;;;;;;;;;5015556;28;19940;-67
2023/06/18 00:27:30;;;;;;;;;;;;;;;;;;5033506;28;19939;-69
2023/06/18 00:29:56;;;;;;;;;;;;;;;;;;5034767;28;20409;-69
2023/06/18 00:32:23;;;;;;;;;;;;;;;;;;5034858;28;19950;-69
2023/06/18 00:34:53;;;;;;;;;;;;;;;;;;5026798;28;20300;-70
2023/06/18 00:37:20;;;;;;;;;;;;;;;;;;5015192;28;20023;-70
2023/06/18 00:39:46;;;;;;;;;;;;;;;;;;5014938;28;19955;-70
2023/06/18 00:42:12;;;;;;;;;;;;;;;;;;5015025;28;19954;-70
2023/06/18 00:44:41;;;;;;;;;;;;;;;;;;5014976;28;19930;-70
2023/06/18 00:47:07;;;;;;;;;;;;;;;;;;5015008;28;19937;-70
2023/06/18 00:49:34;;;;;;;;;;;;;;;;;;5013702;28;19979;-70
2023/06/18 00:52:00;;;;;;;;;;;;;;;;;;5014362;28;19975;-71
2023/06/18 00:54:28;;;;;;;;;;;28.10;99.90;;;;;;5014690;28;20193;-71
2023/06/18 00:56:55;;;;;;;;;;;28.20;99.90;;;;;;5014648;28;19946;-69
2023/06/18 00:59:24;;;;;;;;;;;28.30;99.90;;;;;;5014575;28;19937;-71
2023/06/18 01:01:51;;;;;;;;;;;28.20;99.90;;;;;;5014786;28;19942;-70
2023/06/18 01:04:18;;;;;;;;;;;28.00;99.90;;;;;;5014058;28;19988;-70
2023/06/18 01:06:45;;;;;;;;;;;27.90;99.90;;;;;;5013702;28;20033;-72
2023/06/18 01:09:17;;;;;;;;;;;28.00;99.90;;;;;;5014595;28;19962;-71
2023/06/18 01:11:45;;;;;;;;;;;28.10;99.90;;;;;;5014500;28;19940;-70
2023/06/18 01:14:11;;;;;;;;;;;28.00;99.90;;;;;;5014435;28;20398;-70
2023/06/18 01:16:46;;;;;;;;;;;28.10;99.90;;;;;;5014475;28;19990;-69
2023/06/18 01:19:21;;;;;;;;;;;28.00;99.90;;;;;;5014212;28;19989;-68
2023/06/18 01:21:53;;;;;;;;;;;28.00;99.90;;;;;;5014814;28;19962;-69
2023/06/18 01:24:23;;;;;;;;;;;28.10;99.90;;;;;;5014271;28;20401;-69
2023/06/18 01:26:54;;;;;;;;;;;28.30;99.90;;;;;;5013432;28;19934;-70
2023/06/18 01:29:20;;;;;;;;;;;28.30;99.90;;;;;;5014672;28;20332;-69
2023/06/18 01:31:46;;;;;;;;;;;28.30;99.90;;;;;;5014239;28;19940;-70
2023/06/18 01:34:13;;;;;;;;;;;28.20;99.90;;;;;;5014002;28;19941;-70
2023/06/18 01:36:47;;;;;;;;;;;28.30;99.90;;;;;;5014210;28;19965;-70
2023/06/18 01:39:33;;;;;;;;;;;28.40;99.90;;;;;;5014028;28;19959;-70
2023/06/18 01:42:05;;;;;;;;;;;28.40;99.90;;;;;;5014232;28;19933;-69
2023/06/18 01:44:31;;;;;;;;;;;28.50;99.90;;;;;;5014186;28;19979;-69
2023/06/18 01:46:58;;;;;;;;;;;28.60;99.90;;;;;;5013903;28;19938;-69
2023/06/18 01:49:26;;;;;;;;;;;28.50;99.90;;;;;;5014026;28;19957;-68
2023/06/18 01:51:52;;;;;;;;;;;28.70;99.90;;;;;;5013906;28;20367;-69
2023/06/18 01:54:18;;;;;;;;;;;;;;;;;;5013565;28;19990;-68
2023/06/18 01:56:44;;;;;;;;;;;;;;;;;;5013882;28;19941;-68
2023/06/18 01:59:11;;;;;;;;;;;;;;;;;;5013780;28;19940;-68
2023/06/18 02:01:40;;;;;;;;;;;;;;;;;;5013890;28;20390;-69
2023/06/18 02:04:06;;;;;;;;;;;;;;;;;;5013892;28;19943;-70
2023/06/18 02:06:32;;;;;;;;;;;;;;;;;;5013880;28;19937;-67
2023/06/18 02:08:58;;;;;;;;;;;;;;;;;;5014159;28;19962;-69
2023/06/18 02:11:25;;;;;;;;;;;;;;;;;;5014003;28;20399;-70
2023/06/18 02:13:52;;;;;;;;;;;;;;;;;;5014301;28;20418;-68
2023/06/18 02:16:18;;;;;;;;;;;;;;;;;;5013900;28;19944;-68
2023/06/18 02:18:45;;;;;;;;;;;;;;;;;;5014133;28;20341;-69
2023/06/18 02:21:11;;;;;;;;;;;;;;;;;;5013906;28;20415;-69
2023/06/18 02:23:38;;;;;;;;;;;;;;;;;;5013437;28;19996;-69
2023/06/18 02:26:05;;;;;;;;;;;;;;;;;;5013641;28;19943;-69
2023/06/18 02:28:31;;;;;;;;;;;;;;;;;;5013710;28;20023;-68
2023/06/18 02:30:57;;;;;;;;;;;;;;;;;;5013553;28;20003;-68
2023/06/18 02:33:23;;;;;;;;;;;;;;;;;;5013582;28;19953;-69
2023/06/18 02:35:50;;;;;;;;;;;;;;;;;;5013992;28;19957;-68
2023/06/18 02:38:16;;;;;;;;;;;;;;;;;;5014670;28;19954;-70
2023/06/18 02:40:42;;;;;;;;;;;;;;;;;;5017706;28;20538;-68
2023/06/18 02:43:08;;;;;;;;;;;;;;;;;;5017271;28;19953;-69
2023/06/18 02:45:34;;;;;;;;;;;;;;;;;;5017341;28;19957;-68
2023/06/18 02:48:01;;;;;;;;;;;;;;;;;;5017062;28;19954;-69
2023/06/18 02:50:27;;;;;;;;;;;;;;;;;;5017330;28;20041;-68
2023/06/18 02:52:55;;;;;;;;;;;;;;;;;;5017561;28;19960;-68
2023/06/18 02:55:22;;;;;;;;;;;;;;;;;;5017319;28;20400;-68
2023/06/18 02:57:48;;;;;;;;;;;;;;;;;;5017118;28;19958;-69
2023/06/18 03:00:14;;;;;;;;;;;;;;;;;;5016978;28;19993;-69
2023/06/18 03:02:42;;;;;;;;;;;;;;;;;;5018357;28;20326;-70
2023/06/18 03:05:08;;;;;;;;;;;;;;;;;;5036664;28;20430;-70
2023/06/18 03:07:34;;;;;;;;;;;;;;;;;;5021024;28;19962;-69
2023/06/18 03:10:00;;;;;;;;;;;;;;;;;;5016864;28;20439;-68
2023/06/18 03:12:28;;;;;;;;;;;;;;;;;;5020472;28;19965;-69
2023/06/18 03:14:54;;;;;;;;;;;;;;;;;;5036497;28;19957;-69
2023/06/18 03:17:21;;;;;;;;;;;;;;;;;;5036203;28;19957;-68
2023/06/18 03:19:47;;;;;;;;;;;;;;;;;;5036567;28;19968;-68
2023/06/18 03:22:13;;;;;;;;;;;;;;;;;;5031940;28;20090;-69
2023/06/18 03:24:40;;;;;;;;;;;;;;;;;;5016868;28;19965;-69
2023/06/18 03:27:06;;;;;;;;;;;;;;;;;;5016591;28;19954;-69
2023/06/18 03:29:35;;;;;;;;;;;;;;;;;;5016416;28;20000;-69
2023/06/18 03:32:01;;;;;;;;;;;;;;;;;;5016135;28;20454;-71
2023/06/18 03:34:28;;;;;;;;;;;;;;;;;;5016268;28;19957;-68
2023/06/18 03:36:54;;;;;;;;;;;;;;;;;;5016352;28;19958;-69
2023/06/18 03:39:20;;;;;;;;;;;;;;;;;;5016235;28;19969;-74
2023/06/18 03:41:46;;;;;;;;;;;;;;;;;;5016233;28;20550;-71
2023/06/18 03:44:12;;;;;;;;;;;;;;;;;;5016103;28;19961;-69
2023/06/18 03:46:39;;;;;;;48.53;26.58;;;;;;;;;;5015361;28;20464;-68
2023/06/18 03:49:06;;;;;;;33.00;23.48;;;;;;;;;;5015200;28;20044;-69
2023/06/18 03:51:32;;;;;;;56.80;29.83;;;;;;;;;;5015159;28;20022;-69
2023/06/18 03:53:59;;;;;;;61.75;30.63;;;;;;;;;;5015976;28;20057;-69
2023/06/18 03:56:26;;;;;;;56.95;29.10;;;;;;;;;;5015607;28;20022;-68
2023/06/18 03:58:53;;;;;;;120.72;37.53;;;;;;;;;;5016014;28;20049;-70
2023/06/18 04:01:20;;;;;;;1443.28;999.90;;;;;;;;;;5015689;28;20049;-70
2023/06/18 04:03:47;;;;;;;1462.03;999.90;;;;;;;;;;5015211;28;20053;-69
2023/06/18 04:06:13;;;;;;;1466.25;999.90;;;;;;;;;;5015267;28;20026;-70
2023/06/18 04:08:42;;;;;;;1457.15;999.90;;;;;;;;;;5015223;28;20026;-70
2023/06/18 04:11:08;;;;;;;1471.95;999.90;;;;;;;;;;5015013;28;20025;-69
2023/06/18 04:13:35;;;;;;;1472.53;999.90;;;;;;;;;;5015202;28;20108;-69
2023/06/18 04:16:02;;;;;;;1450.50;999.90;;;;;;;;;;5015329;28;20018;-70
2023/06/18 04:18:29;;;;;;;1453.57;999.90;;;;;;;;;;5015600;28;20045;-69
2023/06/18 04:20:56;;;;;;;1456.32;999.90;;;;;;;;;;5015427;28;20030;-69
2023/06/18 04:23:23;;;;;;;1446.63;999.90;;;;;;;;;;5033181;28;20521;-69
2023/06/18 04:25:49;;;;;;;1413.43;999.90;;;;;;;;;;5033710;28;20026;-69
2023/06/18 04:28:16;;;;;;;1449.55;999.90;;;;;;;;;;5033348;28;20025;-69
2023/06/18 04:30:42;;;;;;;1468.57;999.90;;;;;;;;;;5033450;28;20010;-71
2023/06/18 04:33:09;;;;;;;1455.45;999.90;;;;;;;;;;5033151;28;20021;-69
2023/06/18 04:35:36;;;;;;;1467.28;999.90;;;;;;;;;;5033218;28;20084;-70
2023/06/18 04:38:02;;;;;;;1428.90;999.90;;;;;;;;;;5033853;28;20418;-70
2023/06/18 04:40:29;;;;;;;1385.40;999.90;;;;;;;;;;5033833;28;20037;-70
2023/06/18 04:42:56;;;;;;;1439.63;999.90;;;;;;;;;;5034356;28;20030;-71
2023/06/18 04:45:22;;;;;;;1430.13;999.90;;;;;;;;;;5034403;28;20026;-69
2023/06/18 04:47:49;;;;;;;1415.47;999.90;;;;;;;;;;5034104;28;20025;-70
2023/06/18 04:50:15;;;;;;;1342.60;999.90;;;;;;;;;;5034182;28;20385;-70
2023/06/18 04:52:42;;;;;;;1300.15;999.90;;;;;;;;;;5034510;28;20031;-70
2023/06/18 04:55:09;;;;;;;671.13;606.67;;;;;;;;;;5034024;28;20467;-72
2023/06/18 04:57:36;;;;;;;584.40;527.13;;;;;;;;;;5034145;28;20036;-71
2023/06/18 05:00:04;;;;;;;819.70;738.25;;;;;;;;;;5034318;28;20025;-68
2023/06/18 05:02:31;;;;;;;503.20;452.48;;;;;;;;;;5033190;28;20390;-70
2023/06/18 05:04:58;;;;;;;517.78;465.95;;;;;;;;;;5034374;28;20047;-71
2023/06/18 05:07:25;;;;;;;441.70;396.45;;;;;;;;;;5034450;28;20029;-72
2023/06/18 05:09:51;;;;;;;435.65;391.67;;;;;;;;;;5034054;28;20034;-73
2023/06/18 05:12:18;;;;;;;241.25;219.38;;;;;;;;;;5034037;28;20029;-71
2023/06/18 05:14:45;;;;;;;183.82;167.82;;;;;;;;;;5034531;28;20363;-71
2023/06/18 05:17:11;;;;;;;241.65;220.05;;;;;;;;;;5034434;28;20112;-74
2023/06/18 05:19:38;;;;;;;230.90;210.73;;;;;;;;;;5034178;28;20045;-72
2023/06/18 05:22:05;;;;;;;290.67;263.92;;;;;;;;;;5034393;28;20471;-72
2023/06/18 05:24:31;;;;;;;329.65;298.58;;;;;;;;;;5034282;28;20486;-72
2023/06/18 05:26:58;;;;;;;848.22;763.53;;;;;;;;;;5033831;28;20101;-72
2023/06/18 05:29:25;;;;;;;472.35;424.63;;;;;;;;;;5034146;28;20111;-72
2023/06/18 05:31:54;;;;;;;403.17;362.77;;;;;;;;;;5033883;28;20265;-71
2023/06/18 05:34:21;;;;;;;394.20;354.75;;;;;;;;;;5034148;28;20459;-70
2023/06/18 05:36:47;;;;;;;391.15;352.33;;;;;;;;;;5034127;28;20033;-72
2023/06/18 05:39:15;;;;;;;387.90;349.00;;;;;;;;;;5034079;28;20109;-72
2023/06/18 05:41:41;;;;;;;521.28;468.70;;;;;;;;;;5034123;28;20022;-72
2023/06/18 05:44:08;;;;;;;496.50;446.00;;;;;;;;;;5040354;28;20470;-71
2023/06/18 05:46:35;;;;;;;410.90;369.42;;;;;;;;;;5054156;28;20029;-71
2023/06/18 05:49:01;;;;;;;636.15;573.17;;;;;;;;;;5053557;28;20071;-71
2023/06/18 05:51:28;;;;;;;1473.82;999.90;;;;;;;;;;5053696;28;20017;-72
2023/06/18 05:53:55;;;;;;;1445.22;999.90;;;;;;;;;;5072109;22;20116;-71
2023/06/18 05:56:22;;;;;;;1481.25;999.90;;;;;;;;;;5033177;28;20494;-72
2023/06/18 05:58:48;;;;;;;1459.00;999.90;;;;;;;;;;5034135;28;20029;-72
2023/06/18 06:01:15;;;;;;;1439.30;999.90;;;;;;;;;;5033999;28;20022;-72
2023/06/18 06:03:42;;;;;;;1420.00;999.90;;;;;;;;;;5033775;28;20026;-73
2023/06/18 06:06:08;;;;;;;1426.68;999.90;;;32.70;99.90;;;;;;5033993;28;20454;-72
2023/06/18 06:08:35;;;;;;;1431.43;999.90;;;;;;;;;;5033945;28;20378;-72
2023/06/18 06:11:01;;;;;;;1424.38;999.90;;;;;;;;;;5033712;28;20026;-71
2023/06/18 06:13:28;;;;;;;1436.70;999.90;;;;;;;;;;5035713;28;20525;-72
2023/06/18 06:15:55;;;;;;;1423.32;999.90;;;;;;;;;;5038109;28;20060;-72
2023/06/18 06:18:21;;;;;;;290.30;224.27;;;;;;;;;;5037750;28;20021;-72
2023/06/18 06:20:48;;;;;;;41.65;32.42;;;;;;;;;;5037611;28;20083;-72
2023/06/18 06:23:15;;;;;;;24.05;21.80;;;;;;;;;;5037217;28;20466;-73
2023/06/18 06:25:41;;;;;;;14.25;10.27;;;32.70;99.90;;;;;;5037662;28;20156;-72
2023/06/18 06:28:08;;;;;;;16.30;10.43;;;;;;;;;;5037759;28;20017;-72
2023/06/18 06:30:35;;;;;;;14.77;10.07;;;32.80;99.90;;;;;;5057338;22;20065;-72
2023/06/18 06:33:03;;;;;;;16.50;10.52;;;;;;;;;;5037264;28;20421;-71
2023/06/18 06:35:30;;;;;;;17.88;10.30;;;32.90;99.90;;;;;;5037349;28;20398;-71
2023/06/18 06:37:56;;;;;;;15.50;9.85;;;32.90;99.90;;;;;;5036943;28;20040;-70
2023/06/18 06:40:24;;;;;;;16.48;11.10;;;32.90;99.90;;;;;;5018763;28;20018;-72
2023/06/18 06:42:50;;;;;;;13.50;9.88;;;33.00;99.90;;;;;;5036502;28;20030;-71
2023/06/18 06:45:17;;;;;;;15.10;9.70;;;33.00;99.90;;;;;;5036599;28;20109;-71
2023/06/18 06:47:46;;;;;;;16.40;10.27;;;32.90;99.90;;;;;;5036551;28;20022;-69
2023/06/18 06:50:12;;;;;;;19.95;10.13;;;33.00;99.90;;;;;;5036481;28;20383;-69
2023/06/18 06:52:39;;;;;;;20.92;11.65;;;33.10;99.90;;;;;;5036566;28;20374;-69
2023/06/18 06:55:06;;;;;;;20.75;13.80;;;33.30;99.90;;;;;;5036495;28;20030;-69
2023/06/18 06:57:32;;;;;;;19.45;10.98;;;33.50;99.90;;;;;;5036730;28;20017;-69
2023/06/18 06:59:59;;;;;;;17.95;11.55;;;33.50;99.90;;;;;;5036379;28;20033;-71
2023/06/18 07:02:26;;;;;;;31.10;22.83;;;33.60;99.90;;;;;;5036304;28;20030;-71
2023/06/18 07:04:52;;;;;;;21.67;14.18;;;33.50;99.90;;;;;;5036181;28;20022;-71
2023/06/18 07:07:19;;;;;;;19.63;11.93;;;33.60;99.90;;;;;;5036378;28;20036;-71
2023/06/18 07:09:45;;;;;;;18.92;11.40;;;33.70;99.90;;;;;;5036254;28;20382;-72
2023/06/18 07:12:12;;;;;;;22.48;11.32;;;33.60;99.90;;;;;;5036394;28;20014;-71
2023/06/18 07:14:39;;;;;;;18.27;11.60;;;33.70;99.90;;;;;;5036070;28;20029;-71
2023/06/18 07:17:05;;;;;;;22.05;11.57;;;33.60;99.90;;;;;;5027812;28;20030;-71
2023/06/18 07:19:32;;;;;;;19.83;10.93;;;33.70;99.90;;;;;;5016039;28;20022;-71
2023/06/18 07:21:58;;;;;;;14.75;8.57;;;33.80;99.90;;;;;;5029357;28;20022;-72
2023/06/18 07:24:25;;;;;;;12.93;8.63;;;33.80;99.90;;;;;;5030685;28;20021;-71
2023/06/18 07:26:51;;;;;;;14.77;9.20;;;33.80;99.90;;;;;;5031182;28;20083;-71
2023/06/18 07:29:18;;;;;;;17.88;11.75;;;33.70;99.90;;;;;;5031609;28;20638;-70
2023/06/18 07:31:45;;;;;;;22.52;13.25;;;33.80;99.90;;;;;;5031390;28;20540;-70
2023/06/18 07:34:11;;;;;;;20.05;12.05;;;33.90;99.90;;;;;;5036255;28;20021;-71
2023/06/18 07:36:38;;;;;;;53.20;36.58;;;33.80;99.90;;;;;;5033067;28;20017;-71
2023/06/18 07:39:04;;;;;;;47.50;27.75;;;33.80;99.90;;;;;;5033609;28;20431;-72
2023/06/18 07:41:31;;;;;;;45.75;31.60;;;33.60;99.90;;;;;;5035084;28;20017;-67
2023/06/18 07:43:58;;;;;;;38.35;27.00;;;33.50;99.90;;;;;;5034693;28;20548;-69
2023/06/18 07:46:25;;;;;;;43.63;27.95;;;33.50;99.90;;;;;;5035824;28;20048;-70
2023/06/18 07:48:52;;;;;;;43.60;23.15;;;33.50;99.90;;;;;;5035328;28;20029;-68
2023/06/18 07:51:18;;;;;;;60.10;30.08;;;33.30;99.90;;;;;;5035529;28;20075;-68
2023/06/18 07:53:46;;;;;;;49.75;27.77;;;;;;;;;;5036304;28;20025;-66
2023/06/18 07:56:13;;;;;;;51.00;27.65;;;;;;;;;;5029474;28;20045;-71
2023/06/18 07:58:39;;;;;;;114.45;98.75;;;;;;;;;;5034598;28;20029;-68
2023/06/18 08:01:06;;;;;;;37.13;25.80;;;;;;;;;;5035452;28;20022;-69
2023/06/18 08:03:33;;;;;;;63.22;41.00;;;;;;;;;;5028996;28;20018;-67
2023/06/18 08:05:59;;;;;;;61.97;34.63;;;;;;;;;;5033636;28;20072;-69
2023/06/18 08:08:26;;;;;;;39.63;26.13;;;;;;;;;;5034712;28;20108;-69
2023/06/18 08:10:53;;;;;;;35.25;23.23;;;;;;;;;;5032747;28;20497;-70
2023/06/18 08:13:19;;;;;;;56.10;42.28;;;;;;;;;;5035405;28;20113;-68
2023/06/18 08:15:46;;;;;;;23.42;17.15;;;;;;;;;;5035507;28;20389;-69
2023/06/18 08:18:13;;;;;;;37.25;24.38;;;;;;;;;;5031705;28;20389;-70
2023/06/18 08:20:39;;;;;;;26.85;19.23;;;;;;;;;;5034206;28;20030;-69
2023/06/18 08:23:06;;;;;;;49.65;34.90;;;;;;;;;;5031022;28;20167;-68
2023/06/18 08:25:32;;;;;;;23.65;14.70;;;;;;;;;;5029294;28;20035;-70
2023/06/18 08:27:59;;;;;;;34.08;18.85;;;;;;;;;;5029280;28;20033;-69
2023/06/18 08:30:26;;;;;;;31.42;20.75;;;;;;;;;;5033119;28;20057;-67
2023/06/18 08:32:55;;;;;;;32.00;18.60;;;;;;;;;;5033802;28;20080;-73
2023/06/18 08:35:22;;;;;;;27.80;15.98;;;;;;;;;;5033535;28;20010;-68
2023/06/18 08:37:49;;;;;;;20.33;14.30;;;;;;;;;;5033820;28;20033;-68
2023/06/18 08:40:16;;;;;;;27.95;16.25;;;;;;;;;;5033769;28;20453;-65
2023/06/18 08:42:42;;;;;;;30.90;19.25;;;;;;;;;;5016047;28;20025;-68
2023/06/18 08:45:09;;;;;;;22.35;15.98;;;;;;;;;;5034058;28;21107;-69
2023/06/18 08:47:37;;;;;;;22.02;14.05;;;;;;;;;;5032136;28;20025;-70
2023/06/18 08:50:05;;;;;;;19.60;13.77;;;;;;;;;;5034238;28;20430;-70
2023/06/18 08:52:32;;;;;;;22.45;13.93;;;;;;;;;;5034408;28;20048;-69
2023/06/18 08:55:02;;;;;;;19.90;14.30;;;;;;;;;;5034494;28;20025;-68
2023/06/18 08:57:32;;;;;;;18.65;13.55;;;;;;;;;;5032164;28;20021;-69
2023/06/18 08:59:59;;;;;;;21.15;14.27;;;;;;;;;;5034077;28;20029;-72
2023/06/18 09:02:27;;;;;;;21.02;14.13;;;;;;;;;;5031415;28;20025;-66
2023/06/18 09:04:55;;;;;;;19.92;14.27;;;;;;;;;;5033873;28;20471;-66
2023/06/18 09:07:24;;;;;;;23.25;16.80;;;;;;;;;;5033706;28;20025;-68
2023/06/18 09:09:51;;;;;;;23.98;17.73;;;;;;;;;;5031936;28;20033;-69
2023/06/18 09:12:18;;;;;;;54.20;33.25;;;;;;;;;;5033579;28;20025;-69
2023/06/18 09:14:46;;;;;;;74.50;41.47;;;;;;;;;;5033649;28;20021;-70
2023/06/18 09:17:13;;;;;;;183.15;121.05;;;;;;;;;;5031106;28;20033;-70
2023/06/18 09:19:39;;;;;;;145.18;102.40;;;;;;;;;;5033595;28;20096;-70
2023/06/18 09:22:16;;;;;;;92.28;63.28;;;;;;;;;;5033392;28;20041;-68
2023/06/18 09:24:43;;;;;;;63.17;39.33;;;;;;;;;;5033635;28;20067;-68
2023/06/18 09:27:11;;;;;;;42.45;24.58;;;;;;;;;;5042586;28;20025;-69
2023/06/18 09:29:38;;;;;;;39.40;24.08;;;;;;;;;;5053557;28;20029;-70
2023/06/18 09:32:06;;;;;;;36.55;26.30;;;;;;;;;;5053310;28;20045;-69
2023/06/18 09:34:33;;;;;;;26.85;15.95;;;;;;;;;;5053691;28;20055;-68
2023/06/18 09:36:59;;;;;;;29.77;20.83;;;;;;;;;;5053432;28;20029;-70
2023/06/18 09:39:26;;;;;;;141.35;97.25;;;;;;;;;;5044678;28;20097;-68
2023/06/18 09:41:55;;;;;;;112.22;58.42;;;;;;;;;;5032558;28;20029;-70
2023/06/18 09:44:22;;;;;;;50.67;28.98;;;;;;;;;;5028952;28;20056;-68
2023/06/18 09:46:53;;;;;;;281.98;163.40;;;;;;;;;;5031648;28;20025;-66
2023/06/18 09:49:20;;;;;;;247.85;138.93;;;;;;;;;;5029725;28;20017;-68
2023/06/18 09:51:49;;;;;;;67.78;38.60;;;;;;;;;;5033046;28;20013;-68
2023/06/18 09:54:16;;;;;;;24.85;15.02;;;;;;;;;;5032587;28;20517;-69
2023/06/18 09:57:03;;;;;;;61.83;33.65;;;;;;;;;;5032908;28;20040;-69
2023/06/18 09:59:30;;;;;;;26.77;19.08;;;;;;;;;;5031558;28;20101;-68
2023/06/18 10:01:56;;;;;;;25.23;17.52;;;;;;;;;;5028953;28;20083;-68
2023/06/18 10:04:23;;;;;;;27.50;16.55;;;;;;;;;;5032600;28;20034;-67
2023/06/18 10:06:55;;;;;;;29.73;18.98;;;;;;;;;;5032583;28;20112;-68
2023/06/18 10:09:22;;;;;;;66.93;32.90;;;;;;;;;;5029999;28;20029;-68
2023/06/18 10:11:50;;;;;;;60.20;30.40;;;;;;;;;;5032445;28;20022;-68
2023/06/18 10:14:19;;;;;;;39.78;24.20;;;;;;;;;;5032644;28;20101;-68
2023/06/18 10:16:48;;;;;;;54.63;27.35;;;;;;;;;;5030789;28;20021;-68
2023/06/18 10:19:35;;;;;;;62.83;31.95;;;;;;;;;;5031995;28;20036;-68
2023/06/18 10:22:05;;;;;;;45.70;27.70;;;;;;;;;;4948783;29;20037;-67
2023/06/18 10:24:40;;;;;;;48.05;27.95;;;;;;;;;;4951667;29;20038;-67
2023/06/18 10:27:09;;;;;;;35.20;18.65;;;;;;;;;;4950015;29;20447;-68
2023/06/18 10:29:35;;;;;;;42.15;22.15;;;;;;;;;;4951683;29;20470;-68
2023/06/18 10:32:03;;;;;;;59.40;39.88;;;;;;;;;;4951331;29;20401;-66
2023/06/18 10:34:30;;;;;;;43.80;28.95;;;;;;;;;;4951618;29;20063;-67
2023/06/18 10:36:58;;;;;;;65.40;39.35;;;;;;;;;;4952605;29;20027;-68
2023/06/18 10:39:25;;;;;;;61.03;40.72;;;;;;;;;;4952390;29;20369;-69
2023/06/18 10:41:53;;;;;;;56.75;40.00;;;;;;;;;;4952755;29;20043;-68
2023/06/18 10:44:39;;;;;;;62.05;34.65;;;;;;;;;;4949902;29;20074;-68
2023/06/18 10:47:26;;;;;;;81.45;45.33;;;;;;;;;;4951626;29;20031;-67
2023/06/18 10:50:02;;;;;;;103.85;56.85;;;;;;;;;;4949706;29;20039;-69
2023/06/18 10:52:30;;;;;;;123.82;69.60;;;;;;;;;;4949206;29;20478;-67
2023/06/18 10:55:16;;;;;;;108.90;65.97;;;;;;;;;;4950866;28;20054;-66
2023/06/18 10:57:46;;;;;;;95.53;55.83;;;;;;;;;;4951551;29;20028;-68
2023/06/18 11:00:25;;;;;;;105.93;56.60;;;;;;;;;;4954120;28;20529;-68
2023/06/18 11:02:58;;;;;;;138.75;67.55;;;;;;;;;;4953004;29;20511;-71
2023/06/18 11:05:35;;;;;;;141.20;69.22;;;;;;;;;;4991025;28;20041;-67
2023/06/18 11:08:02;;;;;;;141.32;71.28;;;;;;;;;;5035173;28;20100;-65
2023/06/18 11:10:41;;;;;;;139.98;80.82;;;;;;;;;;5032068;28;20033;-69
2023/06/18 11:13:08;;;;;;;145.20;82.50;;;;;;;;;;5034988;28;20021;-72
2023/06/18 11:15:36;;;;;;;147.43;89.82;;;;;;;;;;5032167;28;20017;-67
2023/06/18 11:18:03;;;;;;;169.07;105.82;;;;;;;;;;5035159;28;20025;-72
2023/06/18 11:20:31;;;;;;;182.00;101.90;;;;;;;;;;5033677;28;20779;-70
2023/06/18 11:22:59;;;;;;;173.85;101.25;;;;;;;;;;5026773;28;20025;-65
2023/06/18 11:25:26;;;;;;;304.98;175.25;;;;;;;;;;5034087;28;20021;-69
2023/06/18 11:27:54;;;;;;;263.45;152.82;;;;;;;;;;5036722;28;20033;-67
2023/06/18 11:30:21;;;;;;;157.13;90.28;;;;;;;;;;5054017;28;20083;-69
2023/06/18 11:32:48;;;;;;;106.63;62.47;;;;;;;;;;5054356;28;20045;-67
2023/06/18 11:35:15;;;;;;;88.90;54.55;;;;;;;;;;5046479;28;20029;-68
2023/06/18 11:37:43;;;;;;;93.95;56.60;;;;;;;;;;5034300;28;20018;-66
2023/06/18 11:40:10;;;;;;;105.10;72.55;;;;;;;;;;5034638;28;20029;-67
2023/06/18 11:42:38;;;;;;;95.05;56.15;;;;;;;;;;5034394;28;20467;-66
2023/06/18 11:45:06;;;;;;;76.20;46.85;;;;;;;;;;5034655;28;20033;-66
2023/06/18 11:47:34;;;;;;;43.17;26.95;;;;;;;;;;5032464;28;20017;-68
2023/06/18 11:50:01;;;;;;;60.03;35.80;;;;;;;;;;5034591;28;20034;-65
2023/06/18 11:52:36;;;;;;;86.53;56.47;;;;;;;;;;5020950;28;20041;-70
2023/06/18 11:55:06;;;;;;;52.60;30.25;;;;;;;;;;5024145;28;20590;-68
2023/06/18 11:57:33;;;;;;;38.75;23.48;;;;;;;;;;5018229;28;20525;-67
2023/06/18 12:00:00;;;;;;;95.40;68.97;;;;;;;;;;5015503;28;20387;-67
2023/06/18 12:02:28;;;;;;;40.30;27.35;;;;;;;;;;5014128;28;20441;-67
2023/06/18 12:05:05;;;;;;;40.53;27.52;;;;;;;;;;5015474;28;20026;-67
2023/06/18 12:07:32;;;;;;;40.55;23.83;;;;;;;;;;5015400;28;20048;-68
2023/06/18 12:10:01;;;;;;;35.92;22.10;;;;;;;;;;5015780;28;20435;-68
2023/06/18 12:12:34;;;;;;;40.10;22.92;;;;;;;;;;5016199;28;20464;-69
2023/06/18 12:15:01;;;;;;;36.80;24.40;;;;;;;;;;5016006;28;20083;-68
2023/06/18 12:17:47;;;;;;;83.88;54.72;;;;;;;;;;5015976;28;20045;-65
2023/06/18 12:20:14;;;;;;;35.80;22.98;;;;;;;;;;5015393;28;20097;-67
2023/06/18 12:22:41;;;;;;;42.03;24.42;;;;;;;;;;5015181;28;20044;-67
2023/06/18 12:25:09;;;;;;;41.95;25.23;;;;;;;;;;5015042;28;20064;-72
2023/06/18 12:27:36;;;;;;;44.03;28.80;;;;;;;;;;5015062;28;20029;-71
2023/06/18 12:30:05;;;;;;;33.55;20.92;;;;;;;;;;5014722;28;20033;-71
2023/06/18 12:32:33;;;;;;;37.03;20.83;;;;;;;;;;5018321;28;20056;-69
2023/06/18 12:35:09;;;;;;;31.63;18.20;;;;;;;;;;5020743;28;20025;-70
2023/06/18 12:37:37;;;;;;;32.10;18.88;;;;;;;;;;5024748;28;20025;-70
2023/06/18 12:40:14;;;;;;;36.00;19.77;;;;;;;;;;5023071;28;20528;-70
2023/06/18 12:42:41;;;;;;;36.13;19.23;;;;;;;;;;5018816;28;20033;-69
2023/06/18 12:45:08;;;;;;;40.38;22.10;;;;;;;;;;5022960;28;20394;-70
2023/06/18 12:47:39;;;;;;;35.35;20.75;;;;;;;;;;5024741;28;20029;-69
2023/06/18 12:50:07;;;;;;;32.40;17.88;;;;;;;;;;5016852;28;20052;-69
2023/06/18 12:52:38;;;;;;;34.97;19.70;;;;;;;;;;5021298;28;20044;-69
2023/06/18 12:55:09;;;;;;;35.65;19.40;;;;;;;;;;5018933;28;20017;-74
2023/06/18 12:57:36;;;;;;;37.58;20.33;;;;;;;;;;5017600;28;20026;-69
2023/06/18 13:00:14;;;;;;;32.42;20.25;;;;;;;;;;5017669;28;20025;-67
2023/06/18 13:02:42;;;;;;;38.63;19.20;;;;;;;;;;5017661;28;20018;-68
2023/06/18 13:05:09;;;;;;;40.38;20.80;;;;;;;;;;5017464;28;20040;-68
2023/06/18 13:07:38;;;;;;;37.03;20.75;;;;;;;;;;5017755;28;20025;-69
2023/06/18 13:10:05;;;;;;;39.15;23.00;;;;;;;;;;5022886;28;20109;-68
2023/06/18 13:12:31;;;;;;;48.80;26.63;;;;;;;;;;5022806;28;20018;-69
2023/06/18 13:14:59;;;;;;;43.35;25.50;;;;;;;;;;5024384;28;20041;-67
2023/06/18 13:17:26;;;;;;;41.50;20.75;;;;;;;;;;5023001;28;20013;-69
2023/06/18 13:19:52;;;;;;;42.15;22.48;;;;;;;;;;5017145;28;20513;-68
2023/06/18 13:22:19;;;;;;;39.45;22.60;;;;;;;;;;5019126;28;20383;-69
2023/06/18 13:24:45;;;;;;;31.20;20.15;;;;;;;;;;5014007;28;20465;-69
2023/06/18 13:27:12;;;;;;;38.65;20.25;;;;;;;;;;5023574;28;20033;-68
2023/06/18 13:29:39;;;;;;;40.65;22.80;;;;;;;;;;5023893;28;20033;-66
2023/06/18 13:32:06;;;;;;;44.42;23.40;;;;;;;;;;5022101;28;20014;-68
2023/06/18 13:34:33;;;;;;;37.20;20.50;;;;;;;;;;5023340;28;20022;-69
2023/06/18 13:37:00;;;;;;;39.90;20.23;;;;;;;;;;5022569;28;20030;-67
2023/06/18 13:39:28;;;;;;;37.58;18.85;;;;;;;;;;5020996;28;20445;-65
2023/06/18 13:41:54;;;;;;;40.25;19.08;;;;;;;;;;5013874;28;20386;-69
2023/06/18 13:44:21;;;;;;;35.88;20.05;;;;;;;;;;5013929;28;20036;-69
2023/06/18 13:46:48;;;;;;;32.53;19.27;;;;;;;;;;5013703;28;20371;-71
2023/06/18 13:49:15;;;;;;;34.28;16.52;;;;;;;;;;5013391;28;20083;-70
2023/06/18 13:51:41;;;;;;;22.48;15.88;;;;;;;;;;5013038;28;20251;-71
2023/06/18 13:54:17;;;;;;;32.85;17.92;;;;;;;;;;5012075;28;20386;-70
2023/06/18 13:56:44;;;;;;;33.42;17.35;;;;;;;;;;5013768;28;20103;-71
2023/06/18 13:59:10;;;;;;;26.15;15.77;;;;;;;;;;5022691;28;20057;-70
2023/06/18 14:01:37;;;;;;;28.00;16.08;;;;;;;;;;5022898;28;20030;-70
2023/06/18 14:04:04;;;;;;;30.83;16.00;;;;;;;;;;5018875;28;20113;-69
2023/06/18 14:06:30;;;;;;;29.40;15.63;;;;;;;;;;5022643;28;20586;-72
2023/06/18 14:08:57;;;;;;;26.77;16.33;;;;;;;;;;5023438;28;20030;-70
2023/06/18 14:11:23;;;;;;;27.38;16.52;;;;;;;;;;5021464;28;20022;-71
2023/06/18 14:13:50;;;;;;;28.83;15.60;;;;;;;;;;5022464;28;20360;-71
2023/06/18 14:16:17;;;;;;;29.42;16.75;;;;;;;;;;5016720;28;20032;-69
2023/06/18 14:18:43;;;;;;;26.48;16.70;;;;;;;;;;5020620;28;20022;-72
2023/06/18 14:21:10;;;;;;;27.05;16.17;;;;;;;;;;5016199;28;20460;-73
2023/06/18 14:23:37;;;;;;;25.38;17.05;;;;;;;;;;5014865;28;20026;-72
2023/06/18 14:26:03;;;;;;;23.67;16.05;;;;;;;;;;5016197;28;20101;-72